sensor_id;sensor_type;location;lat;lon;timestamp;P1;durP1;ratioP1;P2;durP2;ratioP2
9142;SDS011;54072;47.410;8.446;2022-07-05T00:01:42;6.97;;;5.00;;
9142;SDS011;54072;47.410;8.446;2022-07-05T00:04:10;4.70;;;4.30;;
9142;SDS011;54072;47.410;8.446;2022-07-05T00:06:38;7.27;;;5.07;;
9142;SDS011;54072;47.410;8.446;2022-07-05T00:09:29;4.90;;;4.40;;
9142;SDS011;54072;47.410;8.446;2022-07-05T00:11:58;5.67;;;3.80;;
9142;SDS011;54072;47.410;8.446;2022-07-05T00:14:27;5.40;;;4.13;;
9142;SDS011;54072;47.410;8.446;2022-07-05T00:16:55;5.00;;;4.47;;
9142;SDS011;54072;47.410;8.446;2022-07-05T00:19:23;4.60;;;4.20;;
9142;SDS011;54072;47.410;8.446;2022-07-05T00:21:51;4.83;;;4.33;;
9142;SDS011;54072;47.410;8.446;2022-07-05T00:24:20;5.37;;;4.53;;
9142;SDS011;54072;47.410;8.446;2022-07-05T00:26:49;5.13;;;4.63;;
9142;SDS011;54072;47.410;8.446;2022-07-05T00:29:18;5.40;;;4.90;;
9142;SDS011;54072;47.410;8.446;2022-07-05T00:31:46;5.70;;;5.20;;
9142;SDS011;54072;47.410;8.446;2022-07-05T00:34:14;5.33;;;4.83;;
9142;SDS011;54072;47.410;8.446;2022-07-05T00:36:43;7.00;;;4.83;;
9142;SDS011;54072;47.410;8.446;2022-07-05T00:39:11;6.33;;;4.90;;
9142;SDS011;54072;47.410;8.446;2022-07-05T00:41:40;5.47;;;4.93;;
9142;SDS011;54072;47.410;8.446;2022-07-05T00:44:10;6.17;;;5.57;;
9142;SDS011;54072;47.410;8.446;2022-07-05T00:46:41;5.93;;;5.43;;
9142;SDS011;54072;47.410;8.446;2022-07-05T00:49:10;6.30;;;5.37;;
9142;SDS011;54072;47.410;8.446;2022-07-05T00:51:38;6.57;;;5.43;;
9142;SDS011;54072;47.410;8.446;2022-07-05T00:54:16;5.10;;;4.70;;
9142;SDS011;54072;47.410;8.446;2022-07-05T00:56:44;7.13;;;4.67;;
9142;SDS011;54072;47.410;8.446;2022-07-05T00:59:14;5.77;;;4.20;;
9142;SDS011;54072;47.410;8.446;2022-07-05T01:01:42;4.50;;;3.97;;
9142;SDS011;54072;47.410;8.446;2022-07-05T01:04:11;4.33;;;3.90;;
9142;SDS011;54072;47.410;8.446;2022-07-05T01:06:39;4.73;;;3.97;;
9142;SDS011;54072;47.410;8.446;2022-07-05T01:09:08;4.60;;;4.17;;
9142;SDS011;54072;47.410;8.446;2022-07-05T01:11:36;4.70;;;4.13;;
9142;SDS011;54072;47.410;8.446;2022-07-05T01:14:04;5.17;;;4.50;;
9142;SDS011;54072;47.410;8.446;2022-07-05T01:16:38;4.70;;;4.30;;
9142;SDS011;54072;47.410;8.446;2022-07-05T01:19:07;5.43;;;4.47;;
9142;SDS011;54072;47.410;8.446;2022-07-05T01:21:37;5.60;;;4.40;;
9142;SDS011;54072;47.410;8.446;2022-07-05T01:24:07;7.73;;;4.50;;
9142;SDS011;54072;47.410;8.446;2022-07-05T01:26:36;5.87;;;5.07;;
9142;SDS011;54072;47.410;8.446;2022-07-05T01:29:04;5.50;;;4.90;;
9142;SDS011;54072;47.410;8.446;2022-07-05T01:31:33;5.90;;;4.30;;
9142;SDS011;54072;47.410;8.446;2022-07-05T01:34:04;5.73;;;4.87;;
9142;SDS011;54072;47.410;8.446;2022-07-05T01:36:32;9.13;;;6.07;;
9142;SDS011;54072;47.410;8.446;2022-07-05T01:39:01;7.97;;;5.93;;
9142;SDS011;54072;47.410;8.446;2022-07-05T01:41:30;7.03;;;6.17;;
9142;SDS011;54072;47.410;8.446;2022-07-05T01:43:59;6.70;;;6.07;;
9142;SDS011;54072;47.410;8.446;2022-07-05T01:46:29;7.30;;;6.60;;
9142;SDS011;54072;47.410;8.446;2022-07-05T01:48:59;9.27;;;6.87;;
9142;SDS011;54072;47.410;8.446;2022-07-05T01:51:29;7.60;;;6.90;;
9142;SDS011;54072;47.410;8.446;2022-07-05T01:53:58;8.80;;;7.03;;
9142;SDS011;54072;47.410;8.446;2022-07-05T01:56:26;7.80;;;7.00;;
9142;SDS011;54072;47.410;8.446;2022-07-05T01:58:56;11.13;;;7.40;;
9142;SDS011;54072;47.410;8.446;2022-07-05T02:01:34;8.27;;;7.27;;
9142;SDS011;54072;47.410;8.446;2022-07-05T02:04:03;8.23;;;7.40;;
9142;SDS011;54072;47.410;8.446;2022-07-05T02:06:32;8.23;;;7.00;;
9142;SDS011;54072;47.410;8.446;2022-07-05T02:09:01;10.17;;;7.90;;
9142;SDS011;54072;47.410;8.446;2022-07-05T02:11:29;8.57;;;7.43;;
9142;SDS011;54072;47.410;8.446;2022-07-05T02:13:59;8.47;;;6.93;;
9142;SDS011;54072;47.410;8.446;2022-07-05T02:16:27;9.50;;;7.67;;
9142;SDS011;54072;47.410;8.446;2022-07-05T02:18:56;8.93;;;7.37;;
9142;SDS011;54072;47.410;8.446;2022-07-05T02:21:24;10.20;;;8.10;;
9142;SDS011;54072;47.410;8.446;2022-07-05T02:23:53;9.90;;;7.63;;
9142;SDS011;54072;47.410;8.446;2022-07-05T02:26:21;8.17;;;7.40;;
9142;SDS011;54072;47.410;8.446;2022-07-05T02:28:49;8.63;;;7.80;;
9142;SDS011;54072;47.410;8.446;2022-07-05T02:31:19;10.13;;;7.67;;
9142;SDS011;54072;47.410;8.446;2022-07-05T02:33:47;9.33;;;8.33;;
9142;SDS011;54072;47.410;8.446;2022-07-05T02:36:16;8.70;;;8.00;;
9142;SDS011;54072;47.410;8.446;2022-07-05T02:38:44;7.53;;;6.23;;
9142;SDS011;54072;47.410;8.446;2022-07-05T02:41:12;7.40;;;5.70;;
9142;SDS011;54072;47.410;8.446;2022-07-05T02:43:41;7.57;;;4.63;;
9142;SDS011;54072;47.410;8.446;2022-07-05T02:46:09;4.87;;;4.10;;
9142;SDS011;54072;47.410;8.446;2022-07-05T02:48:39;3.60;;;3.20;;
9142;SDS011;54072;47.410;8.446;2022-07-05T02:51:07;3.03;;;2.73;;
9142;SDS011;54072;47.410;8.446;2022-07-05T02:53:35;3.50;;;2.80;;
9142;SDS011;54072;47.410;8.446;2022-07-05T02:56:04;5.03;;;2.90;;
9142;SDS011;54072;47.410;8.446;2022-07-05T02:58:32;3.23;;;2.93;;
9142;SDS011;54072;47.410;8.446;2022-07-05T03:01:02;4.50;;;3.20;;
9142;SDS011;54072;47.410;8.446;2022-07-05T03:03:31;5.03;;;3.13;;
9142;SDS011;54072;47.410;8.446;2022-07-05T03:06:01;3.33;;;3.03;;
9142;SDS011;54072;47.410;8.446;2022-07-05T03:08:29;5.93;;;3.50;;
9142;SDS011;54072;47.410;8.446;2022-07-05T03:10:57;8.53;;;3.10;;
9142;SDS011;54072;47.410;8.446;2022-07-05T03:13:26;10.23;;;3.93;;
9142;SDS011;54072;47.410;8.446;2022-07-05T03:15:54;4.17;;;3.00;;
9142;SDS011;54072;47.410;8.446;2022-07-05T03:18:22;4.40;;;3.73;;
9142;SDS011;54072;47.410;8.446;2022-07-05T03:20:52;3.73;;;3.40;;
9142;SDS011;54072;47.410;8.446;2022-07-05T03:23:22;5.77;;;3.40;;
9142;SDS011;54072;47.410;8.446;2022-07-05T03:25:50;5.70;;;3.40;;
9142;SDS011;54072;47.410;8.446;2022-07-05T03:28:19;4.00;;;3.10;;
9142;SDS011;54072;47.410;8.446;2022-07-05T03:30:47;4.30;;;3.10;;
9142;SDS011;54072;47.410;8.446;2022-07-05T03:33:15;4.57;;;3.20;;
9142;SDS011;54072;47.410;8.446;2022-07-05T03:35:44;5.90;;;3.53;;
9142;SDS011;54072;47.410;8.446;2022-07-05T03:38:12;3.90;;;3.43;;
9142;SDS011;54072;47.410;8.446;2022-07-05T03:40:42;5.30;;;3.10;;
9142;SDS011;54072;47.410;8.446;2022-07-05T03:43:10;4.50;;;3.07;;
9142;SDS011;54072;47.410;8.446;2022-07-05T03:45:38;2.97;;;2.70;;
9142;SDS011;54072;47.410;8.446;2022-07-05T03:48:06;3.50;;;3.13;;
9142;SDS011;54072;47.410;8.446;2022-07-05T03:50:49;4.73;;;3.60;;
9142;SDS011;54072;47.410;8.446;2022-07-05T03:53:17;4.10;;;3.73;;
9142;SDS011;54072;47.410;8.446;2022-07-05T03:55:46;7.27;;;4.20;;
9142;SDS011;54072;47.410;8.446;2022-07-05T03:58:15;3.60;;;3.30;;
9142;SDS011;54072;47.410;8.446;2022-07-05T04:00:43;4.70;;;3.50;;
9142;SDS011;54072;47.410;8.446;2022-07-05T04:03:11;3.80;;;3.27;;
9142;SDS011;54072;47.410;8.446;2022-07-05T04:05:40;3.47;;;3.10;;
9142;SDS011;54072;47.410;8.446;2022-07-05T04:08:08;5.40;;;3.37;;
9142;SDS011;54072;47.410;8.446;2022-07-05T04:10:37;4.60;;;3.87;;
9142;SDS011;54072;47.410;8.446;2022-07-05T04:13:06;4.17;;;3.77;;
9142;SDS011;54072;47.410;8.446;2022-07-05T04:15:34;4.43;;;4.00;;
9142;SDS011;54072;47.410;8.446;2022-07-05T04:18:03;4.67;;;3.93;;
9142;SDS011;54072;47.410;8.446;2022-07-05T04:20:32;6.03;;;3.70;;
9142;SDS011;54072;47.410;8.446;2022-07-05T04:23:00;5.97;;;3.97;;
9142;SDS011;54072;47.410;8.446;2022-07-05T04:25:28;5.10;;;4.20;;
9142;SDS011;54072;47.410;8.446;2022-07-05T04:27:56;4.13;;;3.73;;
9142;SDS011;54072;47.410;8.446;2022-07-05T04:30:26;5.03;;;4.23;;
9142;SDS011;54072;47.410;8.446;2022-07-05T04:32:55;4.10;;;3.80;;
9142;SDS011;54072;47.410;8.446;2022-07-05T04:35:23;4.77;;;4.20;;
9142;SDS011;54072;47.410;8.446;2022-07-05T04:37:51;4.97;;;3.77;;
9142;SDS011;54072;47.410;8.446;2022-07-05T04:40:20;7.33;;;4.00;;
9142;SDS011;54072;47.410;8.446;2022-07-05T04:42:48;5.13;;;3.90;;
9142;SDS011;54072;47.410;8.446;2022-07-05T04:45:16;4.80;;;4.40;;
9142;SDS011;54072;47.410;8.446;2022-07-05T04:47:46;4.40;;;4.00;;
9142;SDS011;54072;47.410;8.446;2022-07-05T04:50:14;5.20;;;4.80;;
9142;SDS011;54072;47.410;8.446;2022-07-05T04:52:42;4.97;;;4.40;;
9142;SDS011;54072;47.410;8.446;2022-07-05T04:55:11;6.23;;;5.00;;
9142;SDS011;54072;47.410;8.446;2022-07-05T04:57:39;8.03;;;4.97;;
9142;SDS011;54072;47.410;8.446;2022-07-05T05:00:09;5.37;;;4.90;;
9142;SDS011;54072;47.410;8.446;2022-07-05T05:02:37;4.80;;;4.37;;
9142;SDS011;54072;47.410;8.446;2022-07-05T05:05:07;5.67;;;4.70;;
9142;SDS011;54072;47.410;8.446;2022-07-05T05:07:36;5.47;;;4.83;;
9142;SDS011;54072;47.410;8.446;2022-07-05T05:10:06;6.13;;;4.80;;
9142;SDS011;54072;47.410;8.446;2022-07-05T05:12:35;5.83;;;4.97;;
9142;SDS011;54072;47.410;8.446;2022-07-05T05:15:03;4.90;;;4.40;;
9142;SDS011;54072;47.410;8.446;2022-07-05T05:17:34;5.67;;;4.43;;
9142;SDS011;54072;47.410;8.446;2022-07-05T05:20:04;5.07;;;4.50;;
9142;SDS011;54072;47.410;8.446;2022-07-05T05:22:34;7.90;;;5.20;;
9142;SDS011;54072;47.410;8.446;2022-07-05T05:25:02;5.70;;;5.03;;
9142;SDS011;54072;47.410;8.446;2022-07-05T05:27:31;5.03;;;4.57;;
9142;SDS011;54072;47.410;8.446;2022-07-05T05:29:59;7.37;;;4.70;;
9142;SDS011;54072;47.410;8.446;2022-07-05T05:32:27;5.63;;;5.03;;
9142;SDS011;54072;47.410;8.446;2022-07-05T05:34:56;5.20;;;4.80;;
9142;SDS011;54072;47.410;8.446;2022-07-05T05:37:24;6.80;;;4.77;;
9142;SDS011;54072;47.410;8.446;2022-07-05T05:39:54;5.00;;;4.60;;
9142;SDS011;54072;47.410;8.446;2022-07-05T05:42:22;5.13;;;4.67;;
9142;SDS011;54072;47.410;8.446;2022-07-05T05:44:50;5.80;;;4.77;;
9142;SDS011;54072;47.410;8.446;2022-07-05T05:47:18;6.50;;;4.97;;
9142;SDS011;54072;47.410;8.446;2022-07-05T05:49:46;10.83;;;5.70;;
9142;SDS011;54072;47.410;8.446;2022-07-05T05:52:15;6.47;;;5.87;;
9142;SDS011;54072;47.410;8.446;2022-07-05T05:54:43;8.50;;;5.57;;
9142;SDS011;54072;47.410;8.446;2022-07-05T05:57:13;5.43;;;5.03;;
9142;SDS011;54072;47.410;8.446;2022-07-05T05:59:41;5.80;;;4.97;;
9142;SDS011;54072;47.410;8.446;2022-07-05T06:02:09;5.40;;;5.00;;
9142;SDS011;54072;47.410;8.446;2022-07-05T06:04:37;6.17;;;5.10;;
9142;SDS011;54072;47.410;8.446;2022-07-05T06:07:06;5.40;;;4.83;;
9142;SDS011;54072;47.410;8.446;2022-07-05T06:09:36;6.07;;;4.83;;
9142;SDS011;54072;47.410;8.446;2022-07-05T06:12:08;6.27;;;5.50;;
9142;SDS011;54072;47.410;8.446;2022-07-05T06:14:40;6.80;;;5.53;;
9142;SDS011;54072;47.410;8.446;2022-07-05T06:17:09;7.70;;;5.97;;
9142;SDS011;54072;47.410;8.446;2022-07-05T06:19:40;5.87;;;5.30;;
9142;SDS011;54072;47.410;8.446;2022-07-05T06:25:08;7.27;;;5.50;;
9142;SDS011;54072;47.410;8.446;2022-07-05T06:27:49;6.97;;;4.90;;
9142;SDS011;54072;47.410;8.446;2022-07-05T06:30:26;5.37;;;4.90;;
9142;SDS011;54072;47.410;8.446;2022-07-05T06:32:54;5.93;;;4.93;;
9142;SDS011;54072;47.410;8.446;2022-07-05T06:35:23;5.63;;;5.00;;
9142;SDS011;54072;47.410;8.446;2022-07-05T06:37:52;4.97;;;4.47;;
9142;SDS011;54072;47.410;8.446;2022-07-05T06:40:20;6.47;;;4.70;;
9142;SDS011;54072;47.410;8.446;2022-07-05T06:42:49;5.97;;;4.67;;
9142;SDS011;54072;47.410;8.446;2022-07-05T06:45:17;4.60;;;4.20;;
9142;SDS011;54072;47.410;8.446;2022-07-05T06:47:54;4.97;;;4.27;;
9142;SDS011;54072;47.410;8.446;2022-07-05T06:50:23;4.10;;;3.77;;
9142;SDS011;54072;47.410;8.446;2022-07-05T06:52:51;3.60;;;3.30;;
9142;SDS011;54072;47.410;8.446;2022-07-05T06:55:19;4.50;;;3.97;;
9142;SDS011;54072;47.410;8.446;2022-07-05T06:57:48;6.37;;;4.10;;
9142;SDS011;54072;47.410;8.446;2022-07-05T07:00:37;4.70;;;4.30;;
9142;SDS011;54072;47.410;8.446;2022-07-05T07:03:26;5.70;;;4.40;;
9142;SDS011;54072;47.410;8.446;2022-07-05T07:06:15;4.67;;;4.03;;
9142;SDS011;54072;47.410;8.446;2022-07-05T07:08:43;6.03;;;4.30;;
9142;SDS011;54072;47.410;8.446;2022-07-05T07:11:29;5.70;;;4.27;;
9142;SDS011;54072;47.410;8.446;2022-07-05T07:13:57;7.10;;;4.20;;
9142;SDS011;54072;47.410;8.446;2022-07-05T07:16:25;4.00;;;3.60;;
9142;SDS011;54072;47.410;8.446;2022-07-05T07:18:55;4.50;;;3.97;;
9142;SDS011;54072;47.410;8.446;2022-07-05T07:21:40;4.20;;;3.80;;
9142;SDS011;54072;47.410;8.446;2022-07-05T07:24:08;4.00;;;3.70;;
9142;SDS011;54072;47.410;8.446;2022-07-05T07:26:37;5.13;;;4.20;;
9142;SDS011;54072;47.410;8.446;2022-07-05T07:29:23;4.87;;;3.80;;
9142;SDS011;54072;47.410;8.446;2022-07-05T07:31:51;4.20;;;3.47;;
9142;SDS011;54072;47.410;8.446;2022-07-05T07:34:21;5.70;;;3.60;;
9142;SDS011;54072;47.410;8.446;2022-07-05T07:36:49;5.57;;;3.93;;
9142;SDS011;54072;47.410;8.446;2022-07-05T07:39:18;5.50;;;4.00;;
9142;SDS011;54072;47.410;8.446;2022-07-05T07:41:45;5.53;;;3.60;;
9142;SDS011;54072;47.410;8.446;2022-07-05T07:44:13;4.13;;;3.73;;
9142;SDS011;54072;47.410;8.446;2022-07-05T07:46:41;4.57;;;4.07;;
9142;SDS011;54072;47.410;8.446;2022-07-05T07:49:10;5.43;;;4.00;;
9142;SDS011;54072;47.410;8.446;2022-07-05T07:51:40;4.80;;;4.30;;
9142;SDS011;54072;47.410;8.446;2022-07-05T07:54:08;6.07;;;4.50;;
9142;SDS011;54072;47.410;8.446;2022-07-05T07:56:36;7.13;;;4.07;;
9142;SDS011;54072;47.410;8.446;2022-07-05T07:59:05;5.30;;;4.18;;
9142;SDS011;54072;47.410;8.446;2022-07-05T08:01:33;5.45;;;4.13;;
9142;SDS011;54072;47.410;8.446;2022-07-05T08:04:05;4.93;;;3.92;;
9142;SDS011;54072;47.410;8.446;2022-07-05T08:06:33;4.00;;;3.65;;
9142;SDS011;54072;47.410;8.446;2022-07-05T08:09:03;4.85;;;3.63;;
9142;SDS011;54072;47.410;8.446;2022-07-05T08:11:32;5.35;;;3.97;;
9142;SDS011;54072;47.410;8.446;2022-07-05T08:14:02;3.22;;;2.92;;
9142;SDS011;54072;47.410;8.446;2022-07-05T08:16:31;3.15;;;2.85;;
9142;SDS011;54072;47.410;8.446;2022-07-05T08:18:59;4.40;;;3.03;;
9142;SDS011;54072;47.410;8.446;2022-07-05T08:21:50;3.63;;;3.20;;
9142;SDS011;54072;47.410;8.446;2022-07-05T08:24:20;3.40;;;2.88;;
9142;SDS011;54072;47.410;8.446;2022-07-05T08:26:48;3.67;;;2.88;;
9142;SDS011;54072;47.410;8.446;2022-07-05T08:29:17;2.80;;;2.60;;
9142;SDS011;54072;47.410;8.446;2022-07-05T08:31:49;2.70;;;2.50;;
9142;SDS011;54072;47.410;8.446;2022-07-05T08:34:18;3.08;;;2.75;;
9142;SDS011;54072;47.410;8.446;2022-07-05T08:36:46;3.22;;;2.88;;
9142;SDS011;54072;47.410;8.446;2022-07-05T08:39:15;3.30;;;3.00;;
9142;SDS011;54072;47.410;8.446;2022-07-05T08:41:46;3.25;;;2.95;;
9142;SDS011;54072;47.410;8.446;2022-07-05T08:44:15;3.22;;;3.03;;
9142;SDS011;54072;47.410;8.446;2022-07-05T08:46:46;3.88;;;2.90;;
9142;SDS011;54072;47.410;8.446;2022-07-05T08:49:20;3.72;;;2.75;;
9142;SDS011;54072;47.410;8.446;2022-07-05T08:51:48;3.00;;;2.80;;
9142;SDS011;54072;47.410;8.446;2022-07-05T08:54:17;2.85;;;2.65;;
9142;SDS011;54072;47.410;8.446;2022-07-05T08:56:47;4.32;;;2.80;;
9142;SDS011;54072;47.410;8.446;2022-07-05T08:59:35;4.47;;;2.90;;
9142;SDS011;54072;47.410;8.446;2022-07-05T09:02:03;3.10;;;2.55;;
9142;SDS011;54072;47.410;8.446;2022-07-05T09:04:33;3.15;;;2.72;;
9142;SDS011;54072;47.410;8.446;2022-07-05T09:07:05;3.58;;;2.78;;
9142;SDS011;54072;47.410;8.446;2022-07-05T09:09:36;4.07;;;3.30;;
9142;SDS011;54072;47.410;8.446;2022-07-05T09:12:11;4.13;;;2.95;;
9142;SDS011;54072;47.410;8.446;2022-07-05T09:14:50;3.00;;;2.70;;
9142;SDS011;54072;47.410;8.446;2022-07-05T09:17:19;3.15;;;2.42;;
9142;SDS011;54072;47.410;8.446;2022-07-05T09:19:51;2.90;;;2.70;;
9142;SDS011;54072;47.410;8.446;2022-07-05T09:22:41;3.10;;;2.90;;
9142;SDS011;54072;47.410;8.446;2022-07-05T09:25:13;3.95;;;2.60;;
9142;SDS011;54072;47.410;8.446;2022-07-05T09:27:48;3.15;;;2.85;;
9142;SDS011;54072;47.410;8.446;2022-07-05T09:30:32;3.42;;;2.70;;
9142;SDS011;54072;47.410;8.446;2022-07-05T09:33:03;3.30;;;2.53;;
9142;SDS011;54072;47.410;8.446;2022-07-05T09:35:32;4.22;;;2.55;;
9142;SDS011;54072;47.410;8.446;2022-07-05T09:38:00;2.85;;;2.60;;
9142;SDS011;54072;47.410;8.446;2022-07-05T09:40:30;3.78;;;2.38;;
9142;SDS011;54072;47.410;8.446;2022-07-05T09:43:13;3.45;;;2.70;;
9142;SDS011;54072;47.410;8.446;2022-07-05T09:45:49;2.60;;;2.40;;
9142;SDS011;54072;47.410;8.446;2022-07-05T09:48:18;3.92;;;2.33;;
9142;SDS011;54072;47.410;8.446;2022-07-05T09:50:51;3.47;;;2.60;;
9142;SDS011;54072;47.410;8.446;2022-07-05T09:53:26;2.35;;;2.20;;
9142;SDS011;54072;47.410;8.446;2022-07-05T09:56:11;2.22;;;2.13;;
9142;SDS011;54072;47.410;8.446;2022-07-05T09:58:41;2.75;;;2.50;;
9142;SDS011;54072;47.410;8.446;2022-07-05T10:01:25;2.35;;;2.15;;
9142;SDS011;54072;47.410;8.446;2022-07-05T10:03:56;2.70;;;2.50;;
9142;SDS011;54072;47.410;8.446;2022-07-05T10:06:25;2.42;;;2.22;;
9142;SDS011;54072;47.410;8.446;2022-07-05T10:08:53;2.70;;;2.50;;
9142;SDS011;54072;47.410;8.446;2022-07-05T10:11:24;2.85;;;2.58;;
9142;SDS011;54072;47.410;8.446;2022-07-05T10:13:56;2.88;;;2.50;;
9142;SDS011;54072;47.410;8.446;2022-07-05T10:16:26;4.38;;;2.40;;
9142;SDS011;54072;47.410;8.446;2022-07-05T10:18:55;2.85;;;2.45;;
9142;SDS011;54072;47.410;8.446;2022-07-05T10:21:24;2.80;;;2.30;;
9142;SDS011;54072;47.410;8.446;2022-07-05T10:23:52;2.35;;;2.15;;
9142;SDS011;54072;47.410;8.446;2022-07-05T10:26:22;2.70;;;2.53;;
9142;SDS011;54072;47.410;8.446;2022-07-05T10:28:51;5.43;;;2.92;;
9142;SDS011;54072;47.410;8.446;2022-07-05T10:31:30;2.47;;;2.38;;
9142;SDS011;54072;47.410;8.446;2022-07-05T10:34:03;3.70;;;2.08;;
9142;SDS011;54072;47.410;8.446;2022-07-05T10:36:42;3.00;;;2.70;;
9142;SDS011;54072;47.410;8.446;2022-07-05T10:39:10;2.38;;;2.17;;
9142;SDS011;54072;47.410;8.446;2022-07-05T10:41:55;2.30;;;2.20;;
9142;SDS011;54072;47.410;8.446;2022-07-05T10:44:29;2.38;;;2.17;;
9142;SDS011;54072;47.410;8.446;2022-07-05T10:47:09;3.03;;;2.40;;
9142;SDS011;54072;47.410;8.446;2022-07-05T10:49:39;2.20;;;2.00;;
9142;SDS011;54072;47.410;8.446;2022-07-05T10:52:21;2.47;;;2.28;;
9142;SDS011;54072;47.410;8.446;2022-07-05T10:57:40;2.75;;;2.40;;
9142;SDS011;54072;47.410;8.446;2022-07-05T11:00:09;2.60;;;2.40;;
9142;SDS011;54072;47.410;8.446;2022-07-05T11:02:42;2.70;;;2.50;;
9142;SDS011;54072;47.410;8.446;2022-07-05T11:05:12;2.80;;;2.60;;
9142;SDS011;54072;47.410;8.446;2022-07-05T11:07:57;5.05;;;2.53;;
9142;SDS011;54072;47.410;8.446;2022-07-05T11:10:25;4.18;;;2.50;;
9142;SDS011;54072;47.410;8.446;2022-07-05T11:12:56;3.00;;;2.60;;
9142;SDS011;54072;47.410;8.446;2022-07-05T11:15:27;2.40;;;2.20;;
9142;SDS011;54072;47.410;8.446;2022-07-05T11:20:40;2.83;;;2.50;;
9142;SDS011;54072;47.410;8.446;2022-07-05T11:23:09;3.80;;;2.53;;
9142;SDS011;54072;47.410;8.446;2022-07-05T11:25:39;2.63;;;2.42;;
9142;SDS011;54072;47.410;8.446;2022-07-05T11:28:11;3.00;;;2.70;;
9142;SDS011;54072;47.410;8.446;2022-07-05T11:30:47;2.45;;;2.25;;
9142;SDS011;54072;47.410;8.446;2022-07-05T11:33:38;2.65;;;2.20;;
9142;SDS011;54072;47.410;8.446;2022-07-05T11:36:22;2.28;;;2.17;;
9142;SDS011;54072;47.410;8.446;2022-07-05T11:39:11;4.53;;;2.63;;
9142;SDS011;54072;47.410;8.446;2022-07-05T11:41:43;2.70;;;2.53;;
9142;SDS011;54072;47.410;8.446;2022-07-05T11:44:15;2.45;;;2.25;;
9142;SDS011;54072;47.410;8.446;2022-07-05T11:46:43;3.13;;;2.72;;
9142;SDS011;54072;47.410;8.446;2022-07-05T11:49:19;2.65;;;2.53;;
9142;SDS011;54072;47.410;8.446;2022-07-05T11:51:55;2.55;;;2.35;;
9142;SDS011;54072;47.410;8.446;2022-07-05T11:54:27;3.20;;;2.50;;
9142;SDS011;54072;47.410;8.446;2022-07-05T11:56:59;2.63;;;2.40;;
9142;SDS011;54072;47.410;8.446;2022-07-05T11:59:27;3.13;;;2.85;;
9142;SDS011;54072;47.410;8.446;2022-07-05T12:01:56;2.15;;;2.05;;
9142;SDS011;54072;47.410;8.446;2022-07-05T12:04:27;2.75;;;2.55;;
9142;SDS011;54072;47.410;8.446;2022-07-05T12:07:00;3.88;;;2.70;;
9142;SDS011;54072;47.410;8.446;2022-07-05T12:09:29;2.70;;;2.50;;
9142;SDS011;54072;47.410;8.446;2022-07-05T12:12:18;2.13;;;2.03;;
9142;SDS011;54072;47.410;8.446;2022-07-05T12:15:05;2.45;;;2.30;;
9142;SDS011;54072;47.410;8.446;2022-07-05T12:17:33;2.53;;;2.33;;
9142;SDS011;54072;47.410;8.446;2022-07-05T12:20:02;2.88;;;2.58;;
9142;SDS011;54072;47.410;8.446;2022-07-05T12:22:33;2.40;;;2.20;;
9142;SDS011;54072;47.410;8.446;2022-07-05T12:25:03;3.30;;;2.28;;
9142;SDS011;54072;47.410;8.446;2022-07-05T12:27:35;2.30;;;2.20;;
9142;SDS011;54072;47.410;8.446;2022-07-05T12:30:05;2.30;;;2.20;;
9142;SDS011;54072;47.410;8.446;2022-07-05T12:35:32;2.30;;;2.10;;
9142;SDS011;54072;47.410;8.446;2022-07-05T12:38:07;2.75;;;2.20;;
9142;SDS011;54072;47.410;8.446;2022-07-05T12:40:36;2.80;;;2.40;;
9142;SDS011;54072;47.410;8.446;2022-07-05T12:43:06;2.72;;;2.50;;
9142;SDS011;54072;47.410;8.446;2022-07-05T12:45:37;3.13;;;2.15;;
9142;SDS011;54072;47.410;8.446;2022-07-05T12:48:12;2.22;;;2.03;;
9142;SDS011;54072;47.410;8.446;2022-07-05T12:50:53;3.83;;;2.40;;
9142;SDS011;54072;47.410;8.446;2022-07-05T12:53:50;3.45;;;2.30;;
9142;SDS011;54072;47.410;8.446;2022-07-05T12:56:46;2.20;;;2.00;;
9142;SDS011;54072;47.410;8.446;2022-07-05T12:59:59;2.35;;;2.05;;
9142;SDS011;54072;47.410;8.446;2022-07-05T13:02:36;2.38;;;2.17;;
9142;SDS011;54072;47.410;8.446;2022-07-05T13:05:09;2.30;;;2.08;;
9142;SDS011;54072;47.410;8.446;2022-07-05T13:07:42;3.45;;;2.22;;
9142;SDS011;54072;47.410;8.446;2022-07-05T13:19:32;1.85;;;1.75;;
9142;SDS011;54072;47.410;8.446;2022-07-05T13:22:00;2.10;;;2.00;;
9142;SDS011;54072;47.410;8.446;2022-07-05T13:24:28;2.00;;;1.80;;
9142;SDS011;54072;47.410;8.446;2022-07-05T13:26:59;2.70;;;2.13;;
9142;SDS011;54072;47.410;8.446;2022-07-05T13:29:35;3.50;;;2.33;;
9142;SDS011;54072;47.410;8.446;2022-07-05T13:32:07;2.40;;;2.15;;
9142;SDS011;54072;47.410;8.446;2022-07-05T13:37:25;2.50;;;2.00;;
9142;SDS011;54072;47.410;8.446;2022-07-05T13:39:53;2.42;;;2.20;;
9142;SDS011;54072;47.410;8.446;2022-07-05T13:42:23;2.17;;;1.98;;
9142;SDS011;54072;47.410;8.446;2022-07-05T13:44:51;2.28;;;2.10;;
9142;SDS011;54072;47.410;8.446;2022-07-05T13:47:20;2.10;;;2.00;;
9142;SDS011;54072;47.410;8.446;2022-07-05T13:49:53;2.40;;;2.20;;
9142;SDS011;54072;47.410;8.446;2022-07-05T13:55:38;2.17;;;1.98;;
9142;SDS011;54072;47.410;8.446;2022-07-05T13:58:08;2.95;;;2.00;;
9142;SDS011;54072;47.410;8.446;2022-07-05T14:00:38;2.30;;;2.08;;
9142;SDS011;54072;47.410;8.446;2022-07-05T14:03:07;2.00;;;1.88;;
9142;SDS011;54072;47.410;8.446;2022-07-05T14:05:36;2.03;;;1.90;;
9142;SDS011;54072;47.410;8.446;2022-07-05T14:08:12;5.63;;;2.05;;
9142;SDS011;54072;47.410;8.446;2022-07-05T14:10:42;2.60;;;2.40;;
9142;SDS011;54072;47.410;8.446;2022-07-05T14:13:13;2.10;;;2.00;;
9142;SDS011;54072;47.410;8.446;2022-07-05T14:15:42;2.30;;;2.00;;
9142;SDS011;54072;47.410;8.446;2022-07-05T14:18:12;2.10;;;2.00;;
9142;SDS011;54072;47.410;8.446;2022-07-05T14:20:42;2.00;;;1.90;;
9142;SDS011;54072;47.410;8.446;2022-07-05T14:23:13;2.42;;;1.95;;
9142;SDS011;54072;47.410;8.446;2022-07-05T14:25:47;2.05;;;1.90;;
9142;SDS011;54072;47.410;8.446;2022-07-05T14:31:24;2.60;;;2.10;;
9142;SDS011;54072;47.410;8.446;2022-07-05T14:34:02;4.95;;;1.92;;
9142;SDS011;54072;47.410;8.446;2022-07-05T14:36:30;4.32;;;1.98;;
9142;SDS011;54072;47.410;8.446;2022-07-05T14:38:59;1.95;;;1.80;;
9142;SDS011;54072;47.410;8.446;2022-07-05T14:41:31;2.30;;;2.00;;
9142;SDS011;54072;47.410;8.446;2022-07-05T14:43:59;1.85;;;1.75;;
9142;SDS011;54072;47.410;8.446;2022-07-05T14:46:28;2.55;;;1.90;;
9142;SDS011;54072;47.410;8.446;2022-07-05T14:48:57;2.10;;;1.77;;
9142;SDS011;54072;47.410;8.446;2022-07-05T14:51:25;1.67;;;1.58;;
9142;SDS011;54072;47.410;8.446;2022-07-05T14:53:53;1.70;;;1.60;;
9142;SDS011;54072;47.410;8.446;2022-07-05T14:56:22;2.03;;;1.88;;
9142;SDS011;54072;47.410;8.446;2022-07-05T14:58:51;2.08;;;1.98;;
9142;SDS011;54072;47.410;8.446;2022-07-05T15:01:20;2.00;;;1.80;;
9142;SDS011;54072;47.410;8.446;2022-07-05T15:03:48;3.13;;;1.90;;
9142;SDS011;54072;47.410;8.446;2022-07-05T15:06:16;2.72;;;1.77;;
9142;SDS011;54072;47.410;8.446;2022-07-05T15:08:45;2.00;;;1.90;;
9142;SDS011;54072;47.410;8.446;2022-07-05T15:11:13;2.20;;;2.10;;
9142;SDS011;54072;47.410;8.446;2022-07-05T15:13:42;3.10;;;1.92;;
9142;SDS011;54072;47.410;8.446;2022-07-05T15:16:11;4.05;;;2.10;;
9142;SDS011;54072;47.410;8.446;2022-07-05T15:18:40;3.88;;;2.00;;
9142;SDS011;54072;47.410;8.446;2022-07-05T15:21:08;1.58;;;1.48;;
9142;SDS011;54072;47.410;8.446;2022-07-05T15:23:37;2.20;;;1.70;;
9142;SDS011;54072;47.410;8.446;2022-07-05T15:26:05;1.80;;;1.55;;
9142;SDS011;54072;47.410;8.446;2022-07-05T15:28:33;1.50;;;1.40;;
9142;SDS011;54072;47.410;8.446;2022-07-05T15:31:02;1.70;;;1.60;;
9142;SDS011;54072;47.410;8.446;2022-07-05T15:33:34;1.80;;;1.70;;
9142;SDS011;54072;47.410;8.446;2022-07-05T15:36:03;2.95;;;2.00;;
9142;SDS011;54072;47.410;8.446;2022-07-05T15:38:31;1.70;;;1.60;;
9142;SDS011;54072;47.410;8.446;2022-07-05T15:41:02;4.28;;;2.03;;
9142;SDS011;54072;47.410;8.446;2022-07-05T15:43:31;3.03;;;2.00;;
9142;SDS011;54072;47.410;8.446;2022-07-05T15:45:59;2.20;;;1.88;;
9142;SDS011;54072;47.410;8.446;2022-07-05T15:48:28;2.42;;;1.80;;
9142;SDS011;54072;47.410;8.446;2022-07-05T15:50:58;2.72;;;2.00;;
9142;SDS011;54072;47.410;8.446;2022-07-05T15:53:26;2.72;;;2.10;;